Time;durP1;ratioP1;P1;durP2;ratioP2;P2;SDS_P1;SDS_P2;PMS_P1;PMS_P2;Temp;Humidity;BMP_temperature;BMP_pressure;BME280_temperature;BME280_humidity;BME280_pressure;Samples;Min_cycle;Max_cycle;Signal;HPM_P1;HPM_P2
2021/06/19 00:01:14;;;;;;;0.85;0.35;;;20.20;71.20;;;;;;5030086;28;20037;-85
2021/06/19 00:03:41;;;;;;;1.27;0.30;;;20.10;71.20;;;;;;5051122;28;20048;-85
2021/06/19 00:06:07;;;;;;;0.60;0.30;;;20.10;72.10;;;;;;5013997;28;20033;-85
2021/06/19 00:08:33;;;;;;;0.50;0.13;;;20.10;71.40;;;;;;5052618;28;20044;-86
2021/06/19 00:10:59;;;;;;;0.45;0.22;;;20.00;71.30;;;;;;5053122;28;20048;-84
2021/06/19 00:13:25;;;;;;;0.50;0.15;;;20.00;71.40;;;;;;5051109;28;20399;-86
2021/06/19 00:15:51;;;;;;;1.30;0.40;;;20.00;71.50;;;;;;5051748;28;20025;-84
2021/06/19 00:18:17;;;;;;;2.05;0.35;;;19.90;71.60;;;;;;5050656;28;20032;-85
2021/06/19 00:20:43;;;;;;;1.23;0.52;;;19.90;71.60;;;;;;5034595;28;20039;-85
2021/06/19 00:23:10;;;;;;;1.40;0.25;;;19.90;71.70;;;;;;5052335;28;20029;-85
2021/06/19 00:25:36;;;;;;;1.33;0.30;;;19.80;71.70;;;;;;5052592;28;20028;-85
2021/06/19 00:28:02;;;;;;;5.30;0.55;;;19.80;71.70;;;;;;5014844;28;20471;-85
2021/06/19 00:30:28;;;;;;;6.60;0.25;;;19.80;71.70;;;;;;5040886;28;20043;-84
2021/06/19 00:32:54;;;;;;;0.52;0.25;;;19.80;71.80;;;;;;5051727;28;20032;-85
2021/06/19 00:35:20;;;;;;;0.82;0.28;;;19.80;71.80;;;;;;5034320;28;20036;-85
2021/06/19 00:37:49;;;;;;;1.77;0.30;;;19.80;71.80;;;;;;5047010;28;20520;-85
2021/06/19 00:40:16;;;;;;;0.32;0.20;;;19.80;71.90;;;;;;5047556;28;20021;-85
2021/06/19 00:42:49;;;;;;;0.63;0.15;;;19.70;71.90;;;;;;5034193;28;20024;-85
2021/06/19 00:45:16;;;;;;;2.20;0.43;;;19.70;71.80;;;;;;5033598;28;20394;-85
2021/06/19 00:47:42;;;;;;;1.13;0.50;;;19.80;71.80;;;;;;5051579;28;20036;-84
2021/06/19 00:50:08;;;;;;;1.45;0.10;;;19.70;71.70;;;;;;5034576;28;20374;-84
2021/06/19 00:52:34;;;;;;;1.45;0.10;;;19.80;71.70;;;;;;5033607;28;20052;-84
2021/06/19 00:55:00;;;;;;;0.10;0.00;;;19.70;71.70;;;;;;5034071;28;20033;-85
2021/06/19 00:57:27;;;;;;;1.67;0.60;;;19.80;71.70;;;;;;5050408;28;20429;-85
2021/06/19 00:59:53;;;;;;;3.72;0.20;;;19.70;71.70;;;;;;5050420;28;20044;-86
2021/06/19 01:02:19;;;;;;;0.82;0.25;;;19.70;71.80;;;;;;5033091;28;20397;-85
2021/06/19 01:04:45;;;;;;;1.52;0.30;;;19.70;72.60;;;;;;5051040;28;20021;-84
2021/06/19 01:07:12;;;;;;;1.02;0.38;;;19.60;71.80;;;;;;5029763;28;20033;-86
2021/06/19 01:09:38;;;;;;;1.38;0.13;;;19.60;71.90;;;;;;5047159;28;20033;-86
2021/06/19 01:12:04;;;;;;;7.35;0.47;;;19.60;71.90;;;;;;5046046;28;20040;-85
2021/06/19 01:14:30;;;;;;;3.13;0.38;;;19.60;71.80;;;;;;5034586;28;20088;-84
2021/06/19 01:16:56;;;;;;;0.65;0.10;;;19.60;71.90;;;;;;5051329;28;20030;-85
2021/06/19 01:19:22;;;;;;;1.83;0.68;;;19.60;71.90;;;;;;5050223;28;20037;-85
2021/06/19 01:21:52;;;;;;;0.57;0.20;;;19.60;71.90;;;;;;5051528;28;20032;-85
2021/06/19 01:24:18;;;;;;;3.28;0.50;;;19.60;72.00;;;;;;5034049;28;20470;-84
2021/06/19 01:26:44;;;;;;;0.85;0.38;;;19.60;71.90;;;;;;5050285;28;20040;-85
2021/06/19 01:29:10;;;;;;;3.50;0.22;;;19.60;72.00;;;;;;5050438;28;20122;-86
2021/06/19 01:31:37;;;;;;;0.85;0.32;;;19.60;72.00;;;;;;5049851;28;20034;-85
2021/06/19 01:34:04;;;;;;;1.73;0.65;;;19.60;72.10;;;;;;5050155;28;20052;-85
2021/06/19 01:36:30;;;;;;;1.08;0.45;;;19.50;72.00;;;;;;5014346;28;20501;-84
2021/06/19 01:38:56;;;;;;;1.45;0.47;;;19.50;72.00;;;;;;5046859;28;20037;-85
2021/06/19 01:41:29;;;;;;;1.55;0.43;;;19.50;72.10;;;;;;5049461;28;20033;-85
2021/06/19 01:44:07;;;;;;;1.63;0.25;;;19.50;73.00;;;;;;5050525;28;20028;-84
2021/06/19 01:46:34;;;;;;;0.82;0.25;;;19.40;72.10;;;;;;5029642;28;20057;-85
2021/06/19 01:49:00;;;;;;;1.45;0.30;;;19.40;72.20;;;;;;5027141;28;20025;-85
2021/06/19 01:51:26;;;;;;;0.52;0.20;;;19.40;72.20;;;;;;5051231;28;20401;-83
2021/06/19 01:53:53;;;;;;;1.08;0.63;;;19.40;72.20;;;;;;5030742;28;20049;-85
2021/06/19 01:56:20;;;;;;;2.50;0.50;;;19.40;72.20;;;;;;5048557;28;20032;-86
2021/06/19 01:58:46;;;;;;;1.55;0.30;;;19.40;72.20;;;;;;5033740;28;20379;-83
2021/06/19 02:01:14;;;;;;;1.95;0.70;;;19.40;72.20;;;;;;5046399;28;20033;-85
2021/06/19 02:03:41;;;;;;;1.15;0.28;;;19.50;72.30;;;;;;5043252;28;20028;-84
2021/06/19 02:06:08;;;;;;;2.10;0.30;;;19.50;72.20;;;;;;5041955;28;20025;-82
2021/06/19 02:08:34;;;;;;;0.45;0.17;;;19.50;72.20;;;;;;5046309;28;20033;-85
2021/06/19 02:11:00;;;;;;;0.40;0.20;;;19.50;72.10;;;;;;5052069;28;20036;-86
2021/06/19 02:13:27;;;;;;;1.13;0.40;;;19.50;72.10;;;;;;5048446;28;20033;-86
2021/06/19 02:15:53;;;;;;;0.52;0.20;;;19.60;72.10;;;;;;5050865;28;20038;-85
2021/06/19 02:18:19;;;;;;;0.90;0.45;;;19.60;72.10;;;;;;5034449;28;20389;-84
2021/06/19 02:20:52;;;;;;;5.55;0.77;;;19.60;72.10;;;;;;5049753;28;20026;-85
2021/06/19 02:23:22;;;;;;;2.47;0.30;;;19.50;72.10;;;;;;5051567;28;20419;-84
2021/06/19 02:25:52;;;;;;;1.70;0.45;;;19.50;72.20;;;;;;5050934;28;20029;-86
2021/06/19 02:28:25;;;;;;;1.60;0.45;;;19.50;72.30;;;;;;5049382;28;20025;-85
2021/06/19 02:30:54;;;;;;;2.65;0.57;;;19.40;72.30;;;;;;5047627;28;20040;-85
2021/06/19 02:33:20;;;;;;;1.17;0.47;;;19.40;72.40;;;;;;5047962;28;20047;-85
2021/06/19 02:35:47;;;;;;;0.70;0.35;;;19.30;72.50;;;;;;5034167;28;20207;-84
2021/06/19 02:38:13;;;;;;;1.70;0.52;;;19.30;72.60;;;;;;5051286;28;20037;-85
2021/06/19 02:40:39;;;;;;;1.13;0.40;;;19.20;72.70;;;;;;5050701;28;20037;-85
2021/06/19 02:43:06;;;;;;;1.15;0.40;;;19.20;72.80;;;;;;5053936;28;20036;-85
2021/06/19 02:45:32;;;;;;;0.20;0.00;;;19.20;72.90;;;;;;5052146;28;20045;-85
2021/06/19 02:47:58;;;;;;;0.60;0.10;;;19.10;73.00;;;;;;5052782;28;20021;-85
2021/06/19 02:50:26;;;;;;;0.30;0.10;;;19.10;73.00;;;;;;5036272;28;20039;-84
2021/06/19 02:52:53;;;;;;;0.22;0.10;;;19.10;73.00;;;;;;5053180;28;20048;-85
2021/06/19 02:55:22;;;;;;;1.70;0.40;;;19.10;73.00;;;;;;5052567;28;20044;-84
2021/06/19 02:57:48;;;;;;;3.05;0.55;;;19.10;73.00;;;;;;5015024;28;20055;-84
2021/06/19 03:00:15;;;;;;;1.42;0.75;;;19.10;73.00;;;;;;5031385;28;20029;-85
2021/06/19 03:02:42;;;;;;;1.55;0.40;;;19.10;73.00;;;;;;5051177;28;20024;-86
2021/06/19 03:05:09;;;;;;;2.35;0.70;;;19.10;73.00;;;;;;5049867;28;20029;-84
2021/06/19 03:07:36;;;;;;;0.73;0.38;;;19.10;72.90;;;;;;5052109;28;20029;-85
2021/06/19 03:10:06;;;;;;;1.40;0.45;;;19.20;72.90;;;;;;5035759;28;20034;-85
2021/06/19 03:12:32;;;;;;;1.48;0.63;;;19.20;73.00;;;;;;5031338;28;20040;-85
2021/06/19 03:14:58;;;;;;;0.68;0.28;;;19.20;72.90;;;;;;5052413;28;20461;-85
2021/06/19 03:17:24;;;;;;;0.60;0.30;;;19.20;72.90;;;;;;5035323;28;20032;-85
2021/06/19 03:19:50;;;;;;;2.08;0.60;;;19.20;72.90;;;;;;5052234;28;20382;-85
2021/06/19 03:22:16;;;;;;;1.45;0.22;;;19.20;72.90;;;;;;5015984;28;20045;-85
2021/06/19 03:24:43;;;;;;;4.57;0.65;;;19.20;72.90;;;;;;5018870;28;20044;-85
2021/06/19 03:27:10;;;;;;;2.15;0.52;;;19.20;73.00;;;;;;5052839;28;20025;-85
2021/06/19 03:29:36;;;;;;;1.95;0.30;;;19.10;73.00;;;;;;5035495;28;20032;-83
2021/06/19 03:32:03;;;;;;;0.45;0.20;;;19.10;73.00;;;;;;5051860;28;20489;-85
2021/06/19 03:34:29;;;;;;;0.85;0.43;;;19.10;73.00;;;;;;5047598;28;20398;-84
2021/06/19 03:36:59;;;;;;;0.20;0.10;;;19.00;73.10;;;;;;5047450;28;20017;-85
2021/06/19 03:39:29;;;;;;;1.25;0.52;;;19.00;73.20;;;;;;5031490;28;20025;-85
2021/06/19 03:41:55;;;;;;;0.45;0.30;;;19.00;73.40;;;;;;5048407;28;20025;-85
2021/06/19 03:44:22;;;;;;;1.00;0.35;;;18.90;73.40;;;;;;5034152;28;20033;-85
2021/06/19 03:46:48;;;;;;;1.65;0.55;;;18.90;73.50;;;;;;5047230;28;20493;-85
2021/06/19 03:49:14;;;;;;;1.33;0.10;;;18.90;73.60;;;;;;5032113;28;20409;-84
2021/06/19 03:51:40;;;;;;;0.45;0.15;;;18.80;73.70;;;;;;5047176;28;20023;-85
2021/06/19 03:54:06;;;;;;;0.65;0.10;;;18.80;74.00;;;;;;5034877;28;20048;-84
2021/06/19 03:56:33;;;;;;;0.70;0.35;;;18.70;74.20;;;;;;5051274;28;20025;-86
2021/06/19 03:58:59;;;;;;;2.80;0.30;;;18.70;74.30;;;;;;5035544;28;20678;-86
2021/06/19 04:01:25;;;;;;;1.70;0.15;;;18.60;74.30;;;;;;5034324;28;20514;-86
2021/06/19 04:03:51;;;;;;;1.80;0.50;;;18.70;74.30;;;;;;5051294;28;20032;-85
2021/06/19 04:06:17;;;;;;;2.65;0.47;;;18.70;74.20;;;;;;5052410;28;20036;-87
2021/06/19 04:08:43;;;;;;;1.48;0.43;;;18.70;74.10;;;;;;5051255;28;20469;-85
2021/06/19 04:11:10;;;;;;;4.47;0.30;;;18.70;74.10;;;;;;5051008;28;20029;-85
2021/06/19 04:13:36;;;;;;;1.83;0.60;;;18.80;74.10;;;;;;5051583;28;20051;-85
2021/06/19 04:16:02;;;;;;;0.15;0.05;;;18.80;74.10;;;;;;5029707;28;20033;-82
2021/06/19 04:18:28;;;;;;;1.55;0.35;;;18.80;74.10;;;;;;5047788;28;20032;-84
2021/06/19 04:20:54;;;;;;;1.65;0.32;;;18.80;74.10;;;;;;5049478;28;20463;-84
2021/06/19 04:23:20;;;;;;;1.02;0.30;;;18.70;74.20;;;;;;5049709;28;20029;-86
2021/06/19 04:25:46;;;;;;;0.43;0.15;;;18.70;74.30;;;;;;5051292;28;20029;-85
2021/06/19 04:28:12;;;;;;;1.10;0.40;;;18.60;74.30;;;;;;5052020;28;20044;-86
2021/06/19 04:30:38;;;;;;;1.20;0.30;;;18.70;74.30;;;;;;5046040;28;20029;-86
2021/06/19 04:33:05;;;;;;;0.95;0.30;;;18.70;74.30;;;;;;5029735;28;20053;-86
2021/06/19 04:35:31;;;;;;;0.00;0.00;;;18.70;74.20;;;;;;5018486;28;20033;-86
2021/06/19 04:37:57;;;;;;;0.40;0.10;;;18.70;74.20;;;;;;5051297;28;20036;-85
2021/06/19 04:42:57;;;;;;;0.55;0.32;;;18.70;74.20;;;;;;5036508;28;20032;-86
2021/06/19 04:45:23;;;;;;;0.25;0.08;;;18.60;74.20;;;;;;5029341;28;20044;-86
2021/06/19 04:47:49;;;;;;;0.45;0.17;;;18.60;74.30;;;;;;5048352;28;20040;-86
2021/06/19 04:50:15;;;;;;;0.20;0.17;;;18.60;74.40;;;;;;5032286;28;20033;-86
2021/06/19 04:52:44;;;;;;;1.08;0.10;;;18.60;75.20;;;;;;5050271;28;20052;-86
2021/06/19 04:55:12;;;;;;;3.00;0.40;;;18.60;74.40;;;;;;5050589;28;20040;-86
2021/06/19 04:57:39;;;;;;;3.35;0.40;;;18.50;74.40;;;;;;5051783;28;20194;-86
2021/06/19 05:00:07;;;;;;;0.47;0.17;;;18.50;74.40;;;;;;5050349;28;20033;-85
2021/06/19 05:02:33;;;;;;;1.48;0.55;;;18.50;74.40;;;;;;5050489;28;20386;-85
2021/06/19 05:04:59;;;;;;;13.82;0.55;;;18.50;74.40;;;;;;5052373;28;20037;-86
2021/06/19 05:07:25;;;;;;;5.18;0.98;;;18.50;74.40;;;;;;5050056;28;20029;-86
2021/06/19 05:09:51;;;;;;;6.25;0.85;;;18.50;74.40;;;;;;5047119;28;20481;-85
2021/06/19 05:12:17;;;;;;;1.02;0.43;;;18.50;74.40;;;;;;5050478;28;20036;-86
2021/06/19 05:14:43;;;;;;;0.10;0.00;;;18.60;74.40;;;;;;5051564;28;20107;-86
2021/06/19 05:17:09;;;;;;;0.88;0.30;;;18.60;74.40;;;;;;5050031;28;20030;-85
2021/06/19 05:19:35;;;;;;;0.60;0.30;;;18.60;74.30;;;;;;5050909;28;20393;-86
2021/06/19 05:22:01;;;;;;;1.30;0.30;;;18.60;74.30;;;;;;5033358;28;20037;-86
2021/06/19 05:24:27;;;;;;;0.90;0.10;;;18.60;74.30;;;;;;5014549;28;20048;-85
2021/06/19 05:26:54;;;;;;;0.10;0.03;;;18.60;74.40;;;;;;5030996;28;20048;-86
2021/06/19 05:29:20;;;;;;;3.58;0.65;;;18.60;74.40;;;;;;5048902;28;20037;-86
2021/06/19 05:31:46;;;;;;;0.65;0.30;;;18.60;74.40;;;;;;5045817;28;20044;-86
2021/06/19 05:34:12;;;;;;;0.50;0.22;;;18.60;74.40;;;;;;5045619;28;20037;-86
2021/06/19 05:36:39;;;;;;;0.60;0.30;;;18.60;74.50;;;;;;5045686;28;20028;-86
2021/06/19 05:39:05;;;;;;;0.45;0.25;;;18.50;74.50;;;;;;5029364;28;20037;-87
2021/06/19 05:41:31;;;;;;;0.32;0.10;;;18.50;74.60;;;;;;5051456;28;20527;-86
2021/06/19 05:43:58;;;;;;;0.40;0.20;;;18.50;74.80;;;;;;5046244;28;20040;-86
2021/06/19 05:46:24;;;;;;;0.35;0.03;;;18.40;74.90;;;;;;5031515;28;20049;-86
2021/06/19 05:48:55;;;;;;;0.47;0.30;;;18.30;75.10;;;;;;5049402;28;20028;-86
2021/06/19 05:51:22;;;;;;;0.32;0.10;;;18.30;75.30;;;;;;5017956;28;20042;-86
2021/06/19 05:53:48;;;;;;;0.00;0.00;;;18.20;75.50;;;;;;5052982;28;20377;-85
2021/06/19 05:56:14;;;;;;;0.80;0.55;;;18.20;75.70;;;;;;5051606;28;20051;-85
2021/06/19 05:58:40;;;;;;;8.00;0.30;;;18.10;75.80;;;;;;5049792;28;20029;-86
2021/06/19 06:01:06;;;;;;;0.20;0.00;;;18.10;75.80;;;;;;5052209;28;20029;-87
2021/06/19 06:03:32;;;;;;;0.68;0.20;;;18.10;75.80;;;;;;5054826;28;20020;-86
2021/06/19 06:05:58;;;;;;;3.88;0.50;;;18.20;75.90;;;;;;5052281;28;20406;-86
2021/06/19 06:08:24;;;;;;;1.15;0.40;;;18.20;75.80;;;;;;5054654;28;20028;-86
2021/06/19 06:10:50;;;;;;;3.17;0.90;;;18.20;75.90;;;;;;5055173;28;20482;-86
2021/06/19 06:13:17;;;;;;;0.80;0.10;;;18.20;75.70;;;;;;5036674;28;20033;-86
2021/06/19 06:15:43;;;;;;;1.30;0.57;;;18.20;75.70;;;;;;5052887;28;20044;-86
2021/06/19 06:18:09;;;;;;;9.75;0.75;;;18.30;75.60;;;;;;5054424;28;20557;-86
2021/06/19 06:20:35;;;;;;;1.55;0.47;;;18.40;75.50;;;;;;5054211;28;20033;-86
2021/06/19 06:23:01;;;;;;;9.82;1.10;;;18.40;75.40;;;;;;5054043;28;20021;-85
2021/06/19 06:25:27;;;;;;;1.75;0.00;;;18.50;75.30;;;;;;5054414;28;20024;-87
2021/06/19 06:27:53;;;;;;;0.60;0.20;;;18.50;75.20;;;;;;5048727;28;20032;-86
2021/06/19 06:30:20;;;;;;;1.67;0.30;;;18.50;75.10;;;;;;5036113;28;20028;-86
2021/06/19 06:32:46;;;;;;;2.42;0.35;;;18.60;75.10;;;;;;5036649;28;20021;-86
2021/06/19 06:35:12;;;;;;;1.27;0.47;;;18.60;75.00;;;;;;5036146;28;20044;-86
2021/06/19 06:37:39;;;;;;;0.98;0.25;;;18.70;75.00;;;;;;5037082;28;20041;-87
2021/06/19 06:40:07;;;;;;;0.98;0.35;;;18.70;75.00;;;;;;5053105;28;20025;-85
2021/06/19 06:42:33;;;;;;;0.73;0.30;;;18.70;74.90;;;;;;5051832;28;20053;-87
2021/06/19 06:44:59;;;;;;;1.20;0.32;;;18.70;74.90;;;;;;5052712;28;20036;-86
2021/06/19 06:47:25;;;;;;;0.10;0.00;;;18.80;74.90;;;;;;5052371;28;20055;-86
2021/06/19 06:49:51;;;;;;;1.83;0.38;;;18.80;74.90;;;;;;5054184;28;20029;-86
2021/06/19 06:52:17;;;;;;;1.25;0.30;;;18.80;74.80;;;;;;5052717;28;20033;-87
2021/06/19 06:54:43;;;;;;;2.75;0.40;;;18.90;74.70;;;;;;5052582;28;20099;-87
2021/06/19 06:57:10;;;;;;;1.17;0.20;;;19.00;74.70;;;;;;5052142;28;20029;-86
2021/06/19 06:59:36;;;;;;;0.75;0.38;;;19.00;74.60;;;;;;5036157;28;20024;-86
2021/06/19 07:02:05;;;;;;;1.35;0.55;;;19.10;74.50;;;;;;5052573;28;20048;-87
2021/06/19 07:04:31;;;;;;;0.25;0.20;;;19.20;74.40;;;;;;5053302;28;20036;-86
2021/06/19 07:06:58;;;;;;;1.55;0.30;;;19.30;74.40;;;;;;5033067;28;20485;-86
2021/06/19 07:09:24;;;;;;;0.17;0.10;;;19.30;74.20;;;;;;5053492;28;20029;-86
2021/06/19 07:11:50;;;;;;;2.53;0.05;;;19.30;74.30;;;;;;5053601;28;20025;-86
2021/06/19 07:14:16;;;;;;;1.67;0.28;;;19.30;74.30;;;;;;5052558;28;20041;-86
2021/06/19 07:16:42;;;;;;;2.38;0.55;;;19.30;74.30;;;;;;5052327;28;20025;-87
2021/06/19 07:19:08;;;;;;;0.60;0.30;;;19.40;74.30;;;;;;5053067;28;20044;-86
2021/06/19 07:21:34;;;;;;;0.30;0.13;;;19.40;74.20;;;;;;5035566;28;20494;-87
2021/06/19 07:24:00;;;;;;;0.43;0.05;;;19.40;74.20;;;;;;5031912;28;20052;-87
2021/06/19 07:26:26;;;;;;;1.33;0.57;;;19.40;74.10;;;;;;5035178;28;20036;-87
2021/06/19 07:28:52;;;;;;;2.70;0.95;;;19.50;74.20;;;;;;5053798;28;20029;-86
2021/06/19 07:31:19;;;;;;;1.15;0.30;;;19.50;74.20;;;;;;5052667;28;20036;-87
2021/06/19 07:33:45;;;;;;;0.93;0.47;;;19.60;74.10;;;;;;5051574;28;20032;-87
2021/06/19 07:36:11;;;;;;;0.22;0.20;;;19.60;74.00;;;;;;5051883;28;20037;-87
2021/06/19 07:38:37;;;;;;;0.63;0.20;;;19.60;74.00;;;;;;5053027;28;20025;-86
2021/06/19 07:41:03;;;;;;;0.82;0.38;;;19.60;74.10;;;;;;5052482;28;20036;-86
2021/06/19 07:43:29;;;;;;;3.75;0.50;;;19.60;74.30;;;;;;5048620;28;20025;-87
2021/06/19 07:45:56;;;;;;;0.82;0.50;;;19.60;74.30;;;;;;5047919;28;20048;-87
2021/06/19 07:48:23;;;;;;;0.52;0.35;;;19.70;74.40;;;;;;5052443;28;20025;-86
2021/06/19 07:50:49;;;;;;;1.35;0.57;;;19.80;74.20;;;;;;5051733;28;20036;-86
2021/06/19 07:53:15;;;;;;;1.05;0.47;;;19.80;74.00;;;;;;5051611;28;20033;-87
2021/06/19 07:55:41;;;;;;;0.95;0.40;;;19.90;73.80;;;;;;5053198;28;20041;-87
2021/06/19 07:58:07;;;;;;;1.05;0.20;;;20.00;73.70;;;;;;5034786;28;20508;-86
2021/06/19 08:00:33;;;;;;;2.03;0.20;;;20.00;73.70;;;;;;5051052;28;20036;-86
2021/06/19 08:03:00;;;;;;;0.57;0.38;;;20.00;73.70;;;;;;5051172;28;20025;-86
2021/06/19 08:05:26;;;;;;;0.50;0.22;;;20.10;73.70;;;;;;5052634;28;20029;-86
2021/06/19 08:07:53;;;;;;;4.70;1.33;;;20.10;73.90;;;;;;5031028;28;20037;-86
2021/06/19 08:10:19;;;;;;;3.78;0.43;;;20.10;73.90;;;;;;5029937;28;20033;-87
2021/06/19 08:12:45;;;;;;;6.90;0.68;;;20.20;74.10;;;;;;5046779;28;20028;-86
2021/06/19 08:15:12;;;;;;;2.83;0.10;;;20.30;73.80;;;;;;5029734;28;20490;-86
2021/06/19 08:17:38;;;;;;;1.30;0.40;;;20.40;73.80;;;;;;5050164;28;20048;-87
2021/06/19 08:20:04;;;;;;;2.28;1.02;;;20.40;73.50;;;;;;5031470;28;20036;-86
2021/06/19 08:22:31;;;;;;;2.35;0.75;;;20.50;73.50;;;;;;5030943;28;20053;-86
2021/06/19 08:24:57;;;;;;;2.72;0.65;;;20.50;73.40;;;;;;5046604;28;20086;-86
2021/06/19 08:27:25;;;;;;;4.65;0.52;;;20.60;73.50;;;;;;5030199;28;20033;-86
2021/06/19 08:29:54;;;;;;;5.25;0.50;;;20.70;73.40;;;;;;5032341;28;20469;-86
2021/06/19 08:32:20;;;;;;;2.65;0.75;;;20.70;73.30;;;;;;5049898;28;20029;-86
2021/06/19 08:34:47;;;;;;;0.73;0.25;;;20.70;73.30;;;;;;5046917;28;20059;-86
2021/06/19 08:37:13;;;;;;;1.38;0.35;;;20.70;73.40;;;;;;5050676;28;20473;-86
2021/06/19 08:39:39;;;;;;;4.97;0.70;;;20.70;73.60;;;;;;5030095;28;20048;-86
2021/06/19 08:42:05;;;;;;;3.80;0.95;;;20.60;73.60;;;;;;5029918;28;20032;-87
2021/06/19 08:44:32;;;;;;;3.70;1.10;;;20.70;73.80;;;;;;5047019;28;20033;-82
2021/06/19 08:46:58;;;;;;;1.60;0.40;;;20.60;73.70;;;;;;5072298;28;20041;-86
2021/06/19 08:49:25;;;;;;;1.65;0.52;;;20.70;73.80;;;;;;5045643;28;20489;-86
2021/06/19 08:51:54;;;;;;;2.63;1.02;;;20.60;73.90;;;;;;5029874;28;20035;-87
2021/06/19 08:54:21;;;;;;;1.17;0.17;;;20.60;73.90;;;;;;5047444;28;20041;-85
2021/06/19 08:56:47;;;;;;;0.57;0.25;;;20.70;73.90;;;;;;5048155;28;20037;-86
2021/06/19 08:59:13;;;;;;;4.75;0.60;;;20.80;73.70;;;;;;5033917;28;20422;-86
2021/06/19 09:01:40;;;;;;;8.38;1.23;;;20.90;73.50;;;;;;5050589;28;20040;-86
2021/06/19 09:04:07;;;;;;;1.65;0.68;;;21.00;73.40;;;;;;5046246;28;20032;-87
2021/06/19 09:06:36;;;;;;;0.75;0.52;;;21.10;73.30;;;;;;5051693;28;20024;-86
2021/06/19 09:09:21;;;;;;;3.78;0.70;;;21.30;73.10;;;;;;5034174;28;20025;-87
2021/06/19 09:11:51;;;;;;;3.30;0.50;;;21.60;72.60;;;;;;5036178;28;20044;-86
2021/06/19 09:14:28;;;;;;;5.05;1.35;;;21.80;72.20;;;;;;5048354;28;20044;-86
2021/06/19 09:17:00;;;;;;;1.52;0.50;;;21.80;71.90;;;;;;5050511;28;20045;-87
2021/06/19 09:19:31;;;;;;;2.13;0.43;;;21.80;72.00;;;;;;5030796;28;20056;-86
2021/06/19 09:22:15;;;;;;;1.17;0.40;;;21.90;72.00;;;;;;5050038;28;20017;-86
2021/06/19 09:24:41;;;;;;;1.30;0.68;;;22.00;72.00;;;;;;5051137;28;20033;-86
2021/06/19 09:27:28;;;;;;;1.67;0.45;;;22.00;71.70;;;;;;5051096;28;20022;-86
2021/06/19 09:30:12;;;;;;;2.97;0.60;;;22.00;71.80;;;;;;5045935;28;20037;-86
2021/06/19 09:32:47;;;;;;;2.50;0.63;;;21.90;71.90;;;;;;5001577;28;20411;-87
2021/06/19 09:35:40;;;;;;;1.90;0.47;;;21.90;72.10;;;;;;5000605;28;20426;-86
2021/06/19 09:38:10;;;;;;;1.60;0.40;;;21.90;72.20;;;;;;5044298;28;20399;-86
2021/06/19 09:40:46;;;;;;;1.57;0.77;;;21.90;72.20;;;;;;5037291;28;20037;-86
2021/06/19 09:43:17;;;;;;;1.10;0.55;;;21.90;72.10;;;;;;5033597;28;20030;-86
2021/06/19 09:46:01;;;;;;;3.33;0.85;;;22.00;71.90;;;;;;5016986;28;20068;-86
2021/06/19 09:48:30;;;;;;;2.72;0.75;;;22.10;72.00;;;;;;5028094;28;20521;-87
2021/06/19 09:51:17;;;;;;;4.28;0.63;;;22.10;71.90;;;;;;5003733;28;20509;-86
2021/06/19 09:53:49;;;;;;;2.15;0.68;;;22.10;71.80;;;;;;5033041;28;20076;-86
2021/06/19 09:56:17;;;;;;;4.75;0.90;;;22.20;71.80;;;;;;5016514;28;20042;-86
2021/06/19 09:58:44;;;;;;;1.35;0.75;;;22.20;71.70;;;;;;5018968;28;20044;-86
2021/06/19 10:01:10;;;;;;;2.45;0.85;;;22.20;71.70;;;;;;5035385;28;20056;-86
2021/06/19 10:03:53;;;;;;;6.72;0.55;;;22.20;72.50;;;;;;5016299;28;20026;-86
2021/06/19 10:06:19;;;;;;;2.53;0.32;;;22.20;71.70;;;;;;5013826;28;20421;-87
2021/06/19 10:08:46;;;;;;;5.88;1.05;;;22.20;71.70;;;;;;5053577;28;20021;-86
2021/06/19 10:11:12;;;;;;;2.67;1.20;;;22.30;71.70;;;;;;5037219;28;20051;-86
2021/06/19 10:13:38;;;;;;;5.10;1.15;;;22.30;71.60;;;;;;5055129;28;20417;-86
2021/06/19 10:16:04;;;;;;;2.60;0.50;;;22.40;71.50;;;;;;5052887;28;20037;-87
2021/06/19 10:18:31;;;;;;;2.60;0.82;;;22.50;71.40;;;;;;5036758;28;20027;-87
2021/06/19 10:20:57;;;;;;;3.55;0.77;;;22.60;71.30;;;;;;5033772;28;20034;-87
2021/06/19 10:23:23;;;;;;;1.67;0.65;;;22.60;71.20;;;;;;5052391;28;20482;-87
2021/06/19 10:25:49;;;;;;;2.55;0.70;;;22.60;71.10;;;;;;5055004;28;20037;-86
2021/06/19 10:28:18;;;;;;;1.67;0.60;;;22.60;71.10;;;;;;5036236;28;20033;-87
2021/06/19 10:30:44;;;;;;;4.72;0.70;;;22.70;71.10;;;;;;5050790;28;20485;-87
2021/06/19 10:33:33;;;;;;;3.83;0.82;;;22.70;71.10;;;;;;5053106;28;20025;-87
2021/06/19 10:36:02;;;;;;;1.35;0.38;;;22.70;71.20;;;;;;5054255;28;20508;-87
2021/06/19 10:38:28;;;;;;;1.98;0.70;;;22.70;71.10;;;;;;5020290;28;20029;-87
2021/06/19 10:40:55;;;;;;;1.17;0.52;;;22.70;71.00;;;;;;5053314;28;20536;-86
2021/06/19 10:43:22;;;;;;;10.13;0.70;;;22.70;71.00;;;;;;5032249;28;20048;-87
2021/06/19 10:45:51;;;;;;;4.03;0.93;;;22.70;71.00;;;;;;5016255;28;20072;-87
2021/06/19 10:48:19;;;;;;;4.28;0.70;;;22.70;71.10;;;;;;5040015;28;20030;-87
2021/06/19 10:50:49;;;;;;;7.20;1.23;;;22.70;71.10;;;;;;5051307;28;20021;-86
2021/06/19 10:53:15;;;;;;;2.30;0.73;;;22.70;71.00;;;;;;5034481;28;20358;-87
2021/06/19 10:55:44;;;;;;;1.85;0.68;;;22.70;71.00;;;;;;5050210;28;20049;-86
2021/06/19 10:58:17;;;;;;;2.03;0.73;;;22.70;71.00;;;;;;5053658;28;20040;-87
2021/06/19 11:00:50;;;;;;;2.63;0.93;;;22.70;71.10;;;;;;5047670;28;20036;-86
2021/06/19 11:03:18;;;;;;;0.82;0.32;;;22.70;71.10;;;;;;5052750;28;20490;-87
2021/06/19 11:05:51;;;;;;;1.80;0.70;;;22.70;71.10;;;;;;5036205;28;20032;-87
2021/06/19 11:08:18;;;;;;;2.00;0.60;;;22.70;71.00;;;;;;5034980;28;20041;-86
2021/06/19 11:10:47;;;;;;;2.08;0.50;;;22.70;70.90;;;;;;5052670;28;20025;-87
2021/06/19 11:13:28;;;;;;;3.13;1.08;;;22.70;71.00;;;;;;5051358;28;20037;-86
2021/06/19 11:15:55;;;;;;;1.50;0.70;;;22.70;71.00;;;;;;5052987;28;20052;-87
2021/06/19 11:18:52;;;;;;;1.45;0.38;;;22.70;71.00;;;;;;5052256;28;20393;-87
2021/06/19 11:21:27;;;;;;;4.00;1.05;;;22.70;70.90;;;;;;5053358;28;20032;-87
2021/06/19 11:24:00;;;;;;;3.05;0.20;;;22.70;71.00;;;;;;5035897;28;20025;-87
2021/06/19 11:26:45;;;;;;;2.08;0.85;;;22.70;71.00;;;;;;5053086;28;20402;-88
2021/06/19 11:29:36;;;;;;;2.72;0.52;;;22.70;71.00;;;;;;5050943;28;20382;-87
2021/06/19 11:32:22;;;;;;;;;;;22.60;71.10;;;;;;5050221;28;20033;-87
2021/06/19 11:34:48;;;;;;;1.98;0.73;;;22.60;71.20;;;;;;5052217;28;19932;-89
2021/06/19 11:37:14;;;;;;;2.13;0.50;;;22.50;71.40;;;;;;5047859;28;20096;-88
2021/06/19 11:39:40;;;;;;;1.70;0.60;;;22.50;71.40;;;;;;5031286;28;20410;-87
2021/06/19 11:42:06;;;;;;;1.40;0.60;;;22.40;71.60;;;;;;5051927;28;20029;-87
2021/06/19 11:44:33;;;;;;;3.20;0.70;;;22.30;71.70;;;;;;5052156;28;20489;-88
2021/06/19 11:47:04;;;;;;;3.47;1.42;;;22.30;71.90;;;;;;5051712;28;20406;-88
2021/06/19 11:49:32;;;;;;;3.08;0.90;;;22.20;72.10;;;;;;5047562;28;20040;-87
2021/06/19 11:51:58;;;;;;;6.03;1.10;;;22.20;72.40;;;;;;5035280;28;20131;-87
2021/06/19 11:54:25;;;;;;;2.47;0.55;;;22.10;72.50;;;;;;5034662;28;20037;-88
2021/06/19 11:56:53;;;;;;;4.20;0.90;;;22.00;72.60;;;;;;5035120;28;20024;-89
2021/06/19 11:59:19;;;;;;;1.83;0.35;;;22.00;72.80;;;;;;5017966;28;20038;-88
2021/06/19 12:01:48;;;;;;;6.40;1.02;;;21.90;73.00;;;;;;5052716;28;20398;-87
2021/06/19 12:04:18;;;;;;;1.23;0.65;;;21.90;73.10;;;;;;5035023;28;20088;-88
2021/06/19 12:07:05;;;;;;;1.13;0.65;;;21.90;73.20;;;;;;5051343;28;20037;-88
2021/06/19 12:09:35;;;;;;;1.17;0.40;;;21.80;73.30;;;;;;5049596;28;20386;-87
2021/06/19 12:12:06;;;;;;;3.00;0.68;;;21.90;73.30;;;;;;5035340;28;20025;-88
2021/06/19 12:14:32;;;;;;;1.70;0.47;;;21.90;73.40;;;;;;5035535;28;20021;-88
2021/06/19 12:17:06;;;;;;;1.83;0.55;;;21.90;73.40;;;;;;5051289;28;20048;-88
2021/06/19 12:19:34;;;;;;;2.38;1.00;;;21.90;73.50;;;;;;5017856;28;20041;-88
2021/06/19 12:22:02;;;;;;;1.52;0.43;;;21.90;73.40;;;;;;5028159;28;20084;-88
2021/06/19 12:24:34;;;;;;;1.90;0.43;;;22.00;73.30;;;;;;5050659;28;20029;-88
2021/06/19 12:27:04;;;;;;;2.40;0.50;;;22.10;73.30;;;;;;5034572;28;20028;-88
2021/06/19 12:29:35;;;;;;;1.50;0.50;;;22.20;73.30;;;;;;5052624;28;20048;-88
2021/06/19 12:32:01;;;;;;;1.52;0.60;;;22.20;73.30;;;;;;5048322;28;20394;-88
2021/06/19 12:34:28;;;;;;;1.40;0.45;;;22.10;74.10;;;;;;5029933;28;20029;-89
2021/06/19 12:36:55;;;;;;;5.30;0.63;;;22.20;73.40;;;;;;5018049;28;20048;-88
2021/06/19 12:39:21;;;;;;;2.00;0.60;;;22.10;73.40;;;;;;5034410;28;20401;-89
2021/06/19 12:41:47;;;;;;;1.63;0.35;;;22.20;73.50;;;;;;5050930;28;20033;-88
2021/06/19 12:44:13;;;;;;;3.53;0.82;;;22.20;73.50;;;;;;5051045;28;20033;-88
2021/06/19 12:46:39;;;;;;;2.80;0.40;;;22.20;73.60;;;;;;5050615;28;20049;-88
2021/06/19 12:49:06;;;;;;;2.33;0.60;;;22.10;73.70;;;;;;5050788;28;20029;-89
2021/06/19 12:51:36;;;;;;;1.17;0.60;;;22.00;73.90;;;;;;5013307;28;20409;-88
2021/06/19 12:54:23;;;;;;;1.40;0.20;;;21.90;74.10;;;;;;5046512;28;20025;-88